createdAt,value
2022-08-27T00:02:10.311Z,38.50
2022-08-27T00:04:37.238Z,37.80
2022-08-27T00:07:04.414Z,38.00
2022-08-27T00:09:31.951Z,38.00
2022-08-27T00:11:58.867Z,37.60
2022-08-27T00:14:25.987Z,37.20
2022-08-27T00:16:52.918Z,37.40
2022-08-27T00:19:19.766Z,37.20
2022-08-27T00:21:46.974Z,37.70
2022-08-27T00:24:13.895Z,38.00
2022-08-27T00:26:43.342Z,38.10
2022-08-27T00:29:10.384Z,38.20
2022-08-27T00:31:37.746Z,38.30
2022-08-27T00:34:05.344Z,38.60
2022-08-27T00:36:34.375Z,38.70
2022-08-27T00:39:01.162Z,38.80
2022-08-27T00:41:27.978Z,40.00
2022-08-27T00:43:58.114Z,38.50
2022-08-27T00:46:27.999Z,38.50
2022-08-27T00:48:56.339Z,37.30
2022-08-27T00:51:23.212Z,39.00
2022-08-27T00:53:50.243Z,38.90
2022-08-27T00:56:27.689Z,39.00
2022-08-27T00:58:54.859Z,39.40
2022-08-27T01:01:23.616Z,39.70
2022-08-27T01:03:51.265Z,39.80
2022-08-27T01:06:18.070Z,40.00
2022-08-27T01:08:46.344Z,39.90
2022-08-27T01:11:13.130Z,40.30
2022-08-27T01:13:59.288Z,40.50
2022-08-27T01:16:27.162Z,40.70
2022-08-27T01:18:54.581Z,41.00
2022-08-27T01:21:27.398Z,41.20
2022-08-27T01:24:12.676Z,40.60
2022-08-27T01:26:39.470Z,40.80
2022-08-27T01:29:06.367Z,41.60
2022-08-27T01:31:33.284Z,41.50
2022-08-27T01:34:01.241Z,41.70
2022-08-27T01:36:28.599Z,41.20
2022-08-27T01:38:55.942Z,40.50
2022-08-27T01:41:24.518Z,40.20
2022-08-27T01:43:51.692Z,39.90
2022-08-27T01:46:24.960Z,40.20
2022-08-27T01:48:51.794Z,39.30
2022-08-27T01:51:18.655Z,41.60
2022-08-27T01:53:45.507Z,39.90
2022-08-27T01:56:12.286Z,39.70
2022-08-27T01:58:39.261Z,40.20
2022-08-27T02:01:07.259Z,40.50
2022-08-27T02:03:37.047Z,40.70
2022-08-27T02:06:04.813Z,41.30
2022-08-27T02:08:31.639Z,41.10
2022-08-27T02:10:58.452Z,40.80
2022-08-27T02:13:25.231Z,40.70
2022-08-27T02:15:52.081Z,41.10
2022-08-27T02:18:18.939Z,40.90
2022-08-27T02:20:46.134Z,41.30
2022-08-27T02:23:13.069Z,41.50
2022-08-27T02:25:40.916Z,41.40
2022-08-27T02:28:07.763Z,41.50
2022-08-27T02:30:34.731Z,41.40
2022-08-27T02:33:02.658Z,41.40
2022-08-27T02:35:29.988Z,41.90
2022-08-27T02:37:57.077Z,42.10
2022-08-27T02:40:24.486Z,42.30
2022-08-27T02:42:51.326Z,42.20
2022-08-27T02:45:18.323Z,42.30
2022-08-27T02:47:45.167Z,42.10
2022-08-27T02:50:11.962Z,41.70
2022-08-27T02:52:38.747Z,41.00
2022-08-27T02:55:05.887Z,40.50
2022-08-27T02:57:36.657Z,40.00
2022-08-27T03:00:07.850Z,39.90
2022-08-27T03:02:34.785Z,38.50
2022-08-27T03:05:01.697Z,39.30
2022-08-27T03:07:28.491Z,39.00
2022-08-27T03:09:55.294Z,38.80
2022-08-27T03:12:24.701Z,38.50
2022-08-27T03:14:51.862Z,38.40
2022-08-27T03:17:37.474Z,38.20
2022-08-27T03:20:05.032Z,37.40
2022-08-27T03:22:31.821Z,38.00
2022-08-27T03:24:58.623Z,41.80
2022-08-27T03:27:25.430Z,41.40
2022-08-27T03:29:52.232Z,40.60
2022-08-27T03:32:19.038Z,40.10
2022-08-27T03:34:45.893Z,40.00
2022-08-27T03:37:12.686Z,40.00
2022-08-27T03:39:39.596Z,40.40
2022-08-27T03:42:06.405Z,40.00
2022-08-27T03:44:33.200Z,39.80
2022-08-27T03:47:00.180Z,39.50
2022-08-27T03:49:27.020Z,39.10
2022-08-27T03:51:54.195Z,38.80
2022-08-27T03:54:21.049Z,38.70
2022-08-27T03:56:47.908Z,38.40
2022-08-27T03:59:15.888Z,38.30
2022-08-27T04:01:43.162Z,38.10
2022-08-27T04:04:10.254Z,38.10
2022-08-27T04:06:37.072Z,37.70
2022-08-27T04:09:03.951Z,37.50
2022-08-27T04:11:30.870Z,37.30
2022-08-27T04:13:57.719Z,37.20
2022-08-27T04:16:25.901Z,37.00
2022-08-27T04:18:53.271Z,37.00
2022-08-27T04:21:20.694Z,37.10
2022-08-27T04:23:47.470Z,36.90
2022-08-27T04:26:14.946Z,36.70
2022-08-27T04:28:41.729Z,36.40
2022-08-27T04:31:16.390Z,36.40
2022-08-27T04:33:51.065Z,36.10
2022-08-27T04:36:18.271Z,36.40
2022-08-27T04:38:45.065Z,35.80
2022-08-27T04:41:21.730Z,36.00
2022-08-27T04:43:56.319Z,35.30
2022-08-27T04:46:29.988Z,35.10
2022-08-27T04:48:57.146Z,34.80
2022-08-27T04:51:23.945Z,36.40
2022-08-27T04:53:51.094Z,35.80
2022-08-27T04:56:18.362Z,35.90
2022-08-27T04:58:45.253Z,36.00
2022-08-27T05:01:15.804Z,35.80
2022-08-27T05:03:42.654Z,34.50
2022-08-27T05:06:09.492Z,35.60
2022-08-27T05:08:36.302Z,35.80
2022-08-27T05:11:03.142Z,35.40
2022-08-27T05:13:29.955Z,35.70
2022-08-27T05:16:00.442Z,35.40
2022-08-27T05:18:27.356Z,34.30
2022-08-27T05:20:54.261Z,35.30
2022-08-27T05:23:21.212Z,35.40
2022-08-27T05:25:48.846Z,35.50
2022-08-27T05:28:16.145Z,35.90
2022-08-27T05:30:44.357Z,35.80
2022-08-27T05:33:18.242Z,35.70
2022-08-27T05:35:45.884Z,35.80
2022-08-27T05:38:12.683Z,35.90
2022-08-27T05:40:40.582Z,35.30
2022-08-27T05:43:07.367Z,35.40
2022-08-27T05:45:34.331Z,35.40
2022-08-27T05:48:01.179Z,35.30
2022-08-27T05:50:27.973Z,35.20
2022-08-27T05:52:54.782Z,35.30
2022-08-27T05:55:21.968Z,35.00
2022-08-27T05:57:48.909Z,35.30
2022-08-27T06:00:34.338Z,34.90
2022-08-27T06:03:01.208Z,34.30
2022-08-27T06:05:28.086Z,35.40
2022-08-27T06:07:55.111Z,35.10
2022-08-27T06:10:21.908Z,35.30
2022-08-27T06:12:48.707Z,35.10
2022-08-27T06:15:15.515Z,35.00
2022-08-27T06:17:42.336Z,34.90
2022-08-27T06:20:10.926Z,35.10
2022-08-27T06:22:37.773Z,34.90
2022-08-27T06:25:05.084Z,35.10
2022-08-27T06:27:31.927Z,35.00
2022-08-27T06:29:58.706Z,34.90
2022-08-27T06:32:26.163Z,35.00
2022-08-27T06:34:52.960Z,35.20
2022-08-27T06:37:19.769Z,35.10
2022-08-27T06:39:46.576Z,35.10
2022-08-27T06:42:13.456Z,35.30
2022-08-27T06:44:40.706Z,35.00
2022-08-27T06:47:07.519Z,35.60
2022-08-27T06:49:34.295Z,35.10
2022-08-27T06:52:01.084Z,35.20
2022-08-27T06:54:27.923Z,35.40
2022-08-27T06:56:57.872Z,35.30
2022-08-27T06:59:24.828Z,35.70
2022-08-27T07:01:51.765Z,35.40
2022-08-27T07:04:20.133Z,35.60
2022-08-27T07:06:46.962Z,35.70
2022-08-27T07:09:14.307Z,35.40
2022-08-27T07:11:41.138Z,35.70
2022-08-27T07:14:08.291Z,35.30
2022-08-27T07:16:35.097Z,35.80
2022-08-27T07:19:04.088Z,35.30
2022-08-27T07:21:31.628Z,35.80
2022-08-27T07:23:59.771Z,35.60
2022-08-27T07:26:26.666Z,35.70
2022-08-27T07:28:53.658Z,35.30
2022-08-27T07:31:21.771Z,35.60
2022-08-27T07:33:52.586Z,35.90
2022-08-27T07:36:23.433Z,35.40
2022-08-27T07:38:56.883Z,36.00
2022-08-27T07:41:31.220Z,35.40
2022-08-27T07:44:19.973Z,35.80
2022-08-27T07:46:49.021Z,36.00
2022-08-27T07:49:19.472Z,36.40
2022-08-27T07:51:46.356Z,34.00
2022-08-27T07:54:13.160Z,35.40
2022-08-27T07:56:39.988Z,35.40
2022-08-27T07:59:06.778Z,35.30
2022-08-27T08:01:33.649Z,35.50
2022-08-27T08:04:00.483Z,35.70
2022-08-27T08:06:27.307Z,35.40
2022-08-27T08:08:54.558Z,35.50
2022-08-27T08:11:21.471Z,35.50
2022-08-27T08:13:48.279Z,35.30
2022-08-27T08:16:15.128Z,35.40
2022-08-27T08:18:42.015Z,35.40
2022-08-27T08:21:10.007Z,35.30
2022-08-27T08:23:37.180Z,35.70
2022-08-27T08:26:04.374Z,35.90
2022-08-27T08:28:31.169Z,35.50
2022-08-27T08:30:58.194Z,35.20
2022-08-27T08:33:25.158Z,35.30
2022-08-27T08:35:53.143Z,35.10
2022-08-27T08:38:19.959Z,35.40
2022-08-27T08:40:50.326Z,35.30
2022-08-27T08:43:30.701Z,35.70
2022-08-27T08:45:58.650Z,34.10
2022-08-27T08:48:25.658Z,35.90
2022-08-27T08:50:55.035Z,35.50
2022-08-27T08:53:21.841Z,35.80
2022-08-27T08:55:49.491Z,35.30
2022-08-27T08:58:21.448Z,35.80
2022-08-27T09:00:49.533Z,34.10
2022-08-27T09:03:16.344Z,36.10
2022-08-27T09:05:48.215Z,35.90
2022-08-27T09:08:34.085Z,36.00
2022-08-27T09:11:20.991Z,34.50
2022-08-27T09:14:00.467Z,34.40
2022-08-27T09:16:27.572Z,34.50
2022-08-27T09:18:54.436Z,36.00
2022-08-27T09:21:30.472Z,36.00
2022-08-27T09:24:08.141Z,34.70
2022-08-27T09:26:37.100Z,34.70
2022-08-27T09:29:20.244Z,36.30
2022-08-27T09:31:57.655Z,36.60
2022-08-27T09:34:25.027Z,36.50
2022-08-27T09:37:06.838Z,36.50
2022-08-27T09:39:54.031Z,35.00
2022-08-27T09:42:22.790Z,36.60
2022-08-27T09:44:53.564Z,36.30
2022-08-27T09:47:20.563Z,36.10
2022-08-27T09:49:47.571Z,36.20
2022-08-27T09:52:51.195Z,36.50
2022-08-27T09:55:36.312Z,34.80
2022-08-27T09:58:15.017Z,35.00
2022-08-27T10:00:41.847Z,35.20
2022-08-27T10:03:09.047Z,36.40
2022-08-27T10:05:37.333Z,36.90
2022-08-27T10:08:22.561Z,36.80
2022-08-27T10:10:56.723Z,35.10
2022-08-27T10:13:26.205Z,35.10
2022-08-27T10:16:04.841Z,37.00
2022-08-27T10:18:44.968Z,36.80
2022-08-27T10:21:24.183Z,35.30
2022-08-27T10:23:55.484Z,35.10
2022-08-27T10:26:22.348Z,35.30
2022-08-27T10:28:49.140Z,36.20
2022-08-27T10:31:23.455Z,36.50
2022-08-27T10:33:54.105Z,35.50
2022-08-27T10:36:40.970Z,35.40
2022-08-27T10:39:14.845Z,35.20
2022-08-27T10:41:54.330Z,37.10
2022-08-27T10:44:30.419Z,37.10
2022-08-27T10:46:57.238Z,35.90
2022-08-27T10:49:27.218Z,36.60
2022-08-27T10:51:58.251Z,35.30
2022-08-27T10:54:31.796Z,37.20
2022-08-27T10:57:45.479Z,35.40
2022-08-27T11:00:14.227Z,35.30
2022-08-27T11:02:47.276Z,37.00
2022-08-27T11:05:14.841Z,35.20
2022-08-27T11:07:42.622Z,37.00
2022-08-27T11:10:10.871Z,37.20
2022-08-27T11:12:38.731Z,37.10
2022-08-27T11:15:07.958Z,36.90
2022-08-27T11:17:43.103Z,36.50
2022-08-27T11:20:20.794Z,35.30
2022-08-27T11:22:47.587Z,35.30
2022-08-27T11:25:18.825Z,36.70
2022-08-27T11:27:45.657Z,37.20
2022-08-27T11:30:32.805Z,36.70
2022-08-27T11:33:14.907Z,36.90
2022-08-27T11:36:00.206Z,35.30
2022-08-27T11:38:27.733Z,35.50
2022-08-27T11:40:58.582Z,36.90
2022-08-27T11:43:26.269Z,37.10
2022-08-27T11:45:57.351Z,37.10
2022-08-27T11:48:25.196Z,35.50
2022-08-27T11:50:58.216Z,37.70
2022-08-27T11:53:29.687Z,35.40
2022-08-27T11:55:56.540Z,35.50
2022-08-27T11:58:25.022Z,36.70
2022-08-27T12:00:54.727Z,37.00
2022-08-27T12:03:21.596Z,35.70
2022-08-27T12:05:48.429Z,36.60
2022-08-27T12:08:24.230Z,36.70
2022-08-27T12:10:51.008Z,35.40
2022-08-27T12:13:25.105Z,36.70
2022-08-27T12:16:12.558Z,35.40
2022-08-27T12:18:48.411Z,35.40
2022-08-27T12:21:33.638Z,35.30
2022-08-27T12:24:09.234Z,35.30
2022-08-27T12:26:36.411Z,35.30
2022-08-27T12:29:24.271Z,37.40
2022-08-27T12:32:14.884Z,35.40
2022-08-27T12:34:42.943Z,37.20
2022-08-27T12:37:10.117Z,37.20
2022-08-27T12:39:36.902Z,36.90
2022-08-27T12:42:03.765Z,37.00
2022-08-27T12:44:31.565Z,37.70
2022-08-27T12:47:08.541Z,38.80
2022-08-27T12:49:39.330Z,38.50
2022-08-27T12:52:32.678Z,38.60
2022-08-27T12:55:11.410Z,36.90
2022-08-27T12:57:38.207Z,36.80
2022-08-27T13:00:19.560Z,38.10
2022-08-27T13:03:12.114Z,37.00
2022-08-27T13:05:40.479Z,37.00
2022-08-27T13:08:17.031Z,38.60
2022-08-27T13:10:43.861Z,38.70
2022-08-27T13:13:12.470Z,38.30
2022-08-27T13:15:43.655Z,38.60
2022-08-27T13:18:12.066Z,37.00
2022-08-27T13:20:39.976Z,38.30
2022-08-27T13:23:07.865Z,38.60
2022-08-27T13:25:34.956Z,38.50
2022-08-27T13:28:07.947Z,38.50
2022-08-27T13:30:39.242Z,38.80
2022-08-27T13:33:06.471Z,37.10
2022-08-27T13:35:33.781Z,38.80
2022-08-27T13:38:01.181Z,38.90
2022-08-27T13:40:30.576Z,38.80
2022-08-27T13:43:05.012Z,38.40
2022-08-27T13:45:36.331Z,36.80
2022-08-27T13:48:03.272Z,38.50
2022-08-27T13:50:30.780Z,38.00
2022-08-27T13:53:20.952Z,38.50
2022-08-27T13:55:48.232Z,36.90
2022-08-27T13:58:18.972Z,38.00
2022-08-27T14:00:45.773Z,38.30
2022-08-27T14:03:25.656Z,38.60
2022-08-27T14:05:52.488Z,37.40
2022-08-27T14:08:19.302Z,38.40
2022-08-27T14:10:49.818Z,38.50
2022-08-27T14:13:16.620Z,37.60
2022-08-27T14:15:50.118Z,39.70
2022-08-27T14:18:47.969Z,38.60
2022-08-27T14:21:13.864Z,38.40
2022-08-27T14:23:41.138Z,39.30
2022-08-27T14:26:08.014Z,39.60
2022-08-27T14:28:34.802Z,39.70
2022-08-27T14:31:01.649Z,39.70
2022-08-27T14:33:28.503Z,39.80
2022-08-27T14:35:55.299Z,39.50
2022-08-27T14:38:22.758Z,39.50
2022-08-27T14:40:50.714Z,40.30
2022-08-27T14:43:17.698Z,40.40
2022-08-27T14:45:46.421Z,40.00
2022-08-27T14:48:18.251Z,40.30
2022-08-27T14:50:45.999Z,40.30
2022-08-27T14:53:12.784Z,40.40
2022-08-27T14:55:39.963Z,40.30
2022-08-27T14:58:06.842Z,40.30
2022-08-27T15:00:34.138Z,40.30
2022-08-27T15:03:00.945Z,40.70
2022-08-27T15:05:27.768Z,40.50
2022-08-27T15:07:56.294Z,40.50
2022-08-27T15:10:24.980Z,40.80
2022-08-27T15:12:52.867Z,40.80
2022-08-27T15:15:19.869Z,41.00
2022-08-27T15:17:46.697Z,40.90
2022-08-27T15:20:19.881Z,40.80
2022-08-27T15:22:47.567Z,41.00
2022-08-27T15:25:14.344Z,41.00
2022-08-27T15:27:41.139Z,41.10
2022-08-27T15:30:09.979Z,41.20
2022-08-27T15:32:39.488Z,41.40
2022-08-27T15:35:08.320Z,41.30
2022-08-27T15:37:35.257Z,41.10
2022-08-27T15:40:02.237Z,41.20
2022-08-27T15:42:29.108Z,41.10
2022-08-27T15:44:55.961Z,41.40
2022-08-27T15:47:23.458Z,41.20
2022-08-27T15:49:50.329Z,41.60
2022-08-27T15:52:18.375Z,41.30
2022-08-27T15:54:45.135Z,41.80
2022-08-27T15:57:11.898Z,41.50
2022-08-27T15:59:38.688Z,41.50
2022-08-27T16:02:05.842Z,41.80
2022-08-27T16:04:32.687Z,41.80
2022-08-27T16:06:59.491Z,41.80
2022-08-27T16:09:26.328Z,41.80
2022-08-27T16:11:53.076Z,42.10
2022-08-27T16:14:19.868Z,42.20
2022-08-27T16:16:46.672Z,42.10
2022-08-27T16:19:16.551Z,42.20
2022-08-27T16:21:43.576Z,42.50
2022-08-27T16:24:10.847Z,42.30
2022-08-27T16:26:37.943Z,43.00
2022-08-27T16:29:05.179Z,42.60
2022-08-27T16:31:32.900Z,42.80
2022-08-27T16:33:59.819Z,42.80
2022-08-27T16:36:26.650Z,42.70
2022-08-27T16:38:54.313Z,42.80
2022-08-27T16:41:22.508Z,42.80
2022-08-27T16:43:49.411Z,42.80
2022-08-27T16:46:16.250Z,42.80
2022-08-27T16:49:02.196Z,43.10
2022-08-27T16:51:34.660Z,42.20
2022-08-27T16:54:05.259Z,42.10
2022-08-27T16:56:37.135Z,42.10
2022-08-27T16:59:04.889Z,43.40
2022-08-27T17:01:31.717Z,43.30
2022-08-27T17:04:23.874Z,43.10
2022-08-27T17:06:46.345Z,43.50
2022-08-27T17:09:13.132Z,43.20
2022-08-27T17:11:41.813Z,43.40
2022-08-27T17:14:10.520Z,43.60
2022-08-27T17:16:37.293Z,43.60
2022-08-27T17:19:04.502Z,43.50
2022-08-27T17:21:31.537Z,43.80
2022-08-27T17:23:59.453Z,43.60
2022-08-27T17:26:26.257Z,43.90
2022-08-27T17:28:53.087Z,43.60
2022-08-27T17:31:26.114Z,43.90
2022-08-27T17:33:55.033Z,44.00
2022-08-27T17:36:21.839Z,43.90
2022-08-27T17:38:48.891Z,43.70
2022-08-27T17:41:28.697Z,44.10
2022-08-27T17:43:59.341Z,44.20
2022-08-27T17:46:26.336Z,44.20
2022-08-27T17:48:53.554Z,44.20
2022-08-27T17:51:21.009Z,44.00
2022-08-27T17:53:48.733Z,44.00
2022-08-27T17:56:16.235Z,44.30
2022-08-27T17:58:42.996Z,44.20
2022-08-27T18:01:11.538Z,44.00
2022-08-27T18:03:47.647Z,44.00
2022-08-27T18:06:14.994Z,43.90
2022-08-27T18:08:41.796Z,44.10
2022-08-27T18:11:08.535Z,44.00
2022-08-27T18:13:37.276Z,44.00
2022-08-27T18:16:04.548Z,44.30
2022-08-27T18:18:31.511Z,44.30
2022-08-27T18:20:58.360Z,44.20
2022-08-27T18:23:25.175Z,44.10
2022-08-27T18:25:52.127Z,44.10
2022-08-27T18:28:18.974Z,44.10
2022-08-27T18:30:46.013Z,44.10
2022-08-27T18:33:12.990Z,44.20
2022-08-27T18:35:39.982Z,44.20
2022-08-27T18:38:07.228Z,44.40
2022-08-27T18:40:38.128Z,44.30
2022-08-27T18:43:04.977Z,43.70
2022-08-27T18:45:33.287Z,44.90
2022-08-27T18:48:00.236Z,45.00
2022-08-27T18:50:27.136Z,45.10
2022-08-27T18:52:54.263Z,45.00
2022-08-27T18:55:22.478Z,45.40
2022-08-27T18:57:49.312Z,45.30
2022-08-27T19:00:18.953Z,45.00
2022-08-27T19:02:48.934Z,45.40
2022-08-27T19:05:18.748Z,45.40
2022-08-27T19:07:45.587Z,45.20
2022-08-27T19:10:12.552Z,45.40
2022-08-27T19:12:40.147Z,45.40
2022-08-27T19:15:07.603Z,45.20
2022-08-27T19:17:34.468Z,45.20
2022-08-27T19:20:01.318Z,45.50
2022-08-27T19:22:28.071Z,45.50
2022-08-27T19:24:54.921Z,45.00
2022-08-27T19:27:24.979Z,44.60
2022-08-27T19:29:52.014Z,45.10
2022-08-27T19:32:18.902Z,45.20
2022-08-27T19:34:45.663Z,45.40
2022-08-27T19:37:13.634Z,45.40
2022-08-27T19:39:40.399Z,45.50
2022-08-27T19:42:07.231Z,45.40
2022-08-27T19:44:34.012Z,45.50
2022-08-27T19:47:00.746Z,45.80
2022-08-27T19:49:28.330Z,45.90
2022-08-27T19:51:55.075Z,46.00
2022-08-27T19:54:21.864Z,46.70
2022-08-27T19:56:48.682Z,47.30
2022-08-27T19:59:21.354Z,47.60
2022-08-27T20:01:48.660Z,47.80
2022-08-27T20:04:15.509Z,47.80
2022-08-27T20:06:42.345Z,47.80
2022-08-27T20:09:11.255Z,47.80
2022-08-27T20:11:38.013Z,47.80
2022-08-27T20:14:04.787Z,47.50
2022-08-27T20:16:31.766Z,47.60
2022-08-27T20:19:00.528Z,47.80
2022-08-27T20:21:27.863Z,47.80
2022-08-27T20:23:54.608Z,47.80
2022-08-27T20:26:21.854Z,47.70
2022-08-27T20:28:49.716Z,47.70
2022-08-27T20:31:17.892Z,47.70
2022-08-27T20:33:44.719Z,47.60
2022-08-27T20:36:11.954Z,47.70
2022-08-27T20:38:38.896Z,47.70
2022-08-27T20:41:06.043Z,47.70
2022-08-27T20:43:33.027Z,47.70
2022-08-27T20:45:59.871Z,47.70
2022-08-27T20:48:26.779Z,47.60
2022-08-27T20:50:53.527Z,47.70
2022-08-27T20:53:20.384Z,47.60
2022-08-27T20:55:47.114Z,47.70
2022-08-27T20:58:32.478Z,47.70
2022-08-27T21:00:59.283Z,47.60
2022-08-27T21:03:26.161Z,47.70
2022-08-27T21:05:52.927Z,47.70
2022-08-27T21:08:19.887Z,47.80
2022-08-27T21:10:47.500Z,47.80
2022-08-27T21:13:14.478Z,47.70
2022-08-27T21:15:41.243Z,47.60
2022-08-27T21:18:08.137Z,47.30
2022-08-27T21:20:34.994Z,47.50
2022-08-27T21:23:01.770Z,47.50
2022-08-27T21:25:28.563Z,47.80
2022-08-27T21:27:56.860Z,48.10
2022-08-27T21:30:24.671Z,48.00
2022-08-27T21:32:51.739Z,48.30
2022-08-27T21:35:18.558Z,48.30
2022-08-27T21:37:45.318Z,48.20
2022-08-27T21:40:12.158Z,48.30
2022-08-27T21:42:39.480Z,48.50
2022-08-27T21:45:06.445Z,48.50
2022-08-27T21:47:33.172Z,48.50
2022-08-27T21:50:00.167Z,49.00
2022-08-27T21:52:26.939Z,47.00
2022-08-27T21:54:53.700Z,45.90
2022-08-27T21:57:20.500Z,45.10
2022-08-27T21:59:48.345Z,44.20
2022-08-27T22:02:38.315Z,43.60
2022-08-27T22:05:02.335Z,42.90
2022-08-27T22:07:29.106Z,42.20
2022-08-27T22:09:55.846Z,41.80
2022-08-27T22:12:22.645Z,41.20
2022-08-27T22:14:49.401Z,40.90
2022-08-27T22:17:16.208Z,40.40
2022-08-27T22:19:42.970Z,40.50
2022-08-27T22:22:09.793Z,40.80
2022-08-27T22:24:36.543Z,41.30
2022-08-27T22:27:03.369Z,41.50
2022-08-27T22:29:30.742Z,41.70
2022-08-27T22:31:57.564Z,41.70
2022-08-27T22:34:24.305Z,42.10
2022-08-27T22:36:51.064Z,42.80
2022-08-27T22:39:17.814Z,42.50
2022-08-27T22:41:45.316Z,42.50
2022-08-27T22:44:15.690Z,42.70
2022-08-27T22:46:42.491Z,42.80
2022-08-27T22:49:09.258Z,42.90
2022-08-27T22:51:36.029Z,43.00
2022-08-27T22:54:05.150Z,43.20
2022-08-27T22:56:31.904Z,43.20
2022-08-27T22:58:58.720Z,43.20
2022-08-27T23:01:25.477Z,43.30
2022-08-27T23:03:53.337Z,43.50
2022-08-27T23:06:20.166Z,43.70
2022-08-27T23:08:47.128Z,43.70
2022-08-27T23:11:14.012Z,43.80
2022-08-27T23:13:41.187Z,43.80
2022-08-27T23:16:11.630Z,44.00
2022-08-27T23:18:40.699Z,44.10
2022-08-27T23:21:07.854Z,44.20
2022-08-27T23:23:34.657Z,44.40
2022-08-27T23:26:20.024Z,44.30
2022-08-27T23:28:46.908Z,44.30
2022-08-27T23:31:13.935Z,44.60
2022-08-27T23:33:40.759Z,44.60
2022-08-27T23:36:07.857Z,44.70
2022-08-27T23:38:34.638Z,44.90
2022-08-27T23:41:01.502Z,44.90
2022-08-27T23:43:28.335Z,45.00
2022-08-27T23:45:55.090Z,45.10
2022-08-27T23:48:21.912Z,45.00
2022-08-27T23:50:48.705Z,45.20
2022-08-27T23:53:15.463Z,45.30
2022-08-27T23:55:42.260Z,45.20
2022-08-27T23:58:09.266Z,45.20
